This is the latest recevied weather packets stored in our database for station/object N4OGP-WX. If no packets are shown the sender has not sent any weather packets the latest 10 day(s).
| Time | Temp. | Humidity | Pressure | Rain* | Wind** | Luminosity | Snow |
|---|---|---|---|---|---|---|---|
| 1778342220 | 18.33° C | 96% | 1012.2 hPa | 0 mm | - | - | - |
| 1778342160 | 23.89° C | 42% | 1020.4 hPa | 0 mm | - | - | - |
| 1778342100 | 18.33° C | 96% | 1012.2 hPa | 0 mm | - | - | - |
| 1778342040 | 18.33° C | 96% | 1012.2 hPa | 0 mm | - | - | - |
| 1778341950 | 23.89° C | 42% | 1020.4 hPa | 0 mm | - | - | - |
| 1778341890 | 18.33° C | 96% | 1012.2 hPa | 0 mm | - | - | - |
| 1778341830 | 23.89° C | 42% | 1020.4 hPa | 0 mm | - | - | - |
| 1778341770 | 23.89° C | 42% | 1020.4 hPa | 0 mm | - | - | - |
| 1778341710 | 18.33° C | 96% | 1012.1 hPa | 0 mm | - | - | - |
| 1778341620 | 18.33° C | 96% | 1012.1 hPa | 0 mm | - | - | - |
| 1778341560 | 23.89° C | 42% | 1020.4 hPa | 0 mm | - | - | - |
| 1778341500 | 18.89° C | 96% | 1012.1 hPa | 0 mm | - | - | - |
| 1778341410 | 18.89° C | 96% | 1012 hPa | 0 mm | - | - | - |
| 1778341350 | 18.89° C | 95% | 1012.1 hPa | 0 mm | - | - | - |
| 1778341260 | 18.89° C | 95% | 1012.1 hPa | 0 mm | - | - | - |
| 1778341200 | 18.89° C | 95% | 1012.2 hPa | 0 mm | - | - | - |
| 1778341110 | 18.89° C | 95% | 1012.2 hPa | 0 mm | - | - | - |
| 1778341020 | 18.89° C | 95% | 1012.3 hPa | 0 mm | - | - | - |
| 1778340960 | 18.89° C | 95% | 1012.3 hPa | 0 mm | - | - | - |
| 1778340900 | 23.89° C | 42% | 1020.4 hPa | 0 mm | - | - | - |
| 1778340810 | 18.89° C | 95% | 1012.3 hPa | 0 mm | - | - | - |
| 1778340720 | 18.89° C | 95% | 1012.3 hPa | 0 mm | - | - | - |
| 1778340660 | 19.44° C | 95% | 1012.2 hPa | 0 mm | - | - | - |
| 1778340600 | 19.44° C | 95% | 1012.2 hPa | 0 mm | - | - | - |
| 1778340540 | 19.44° C | 95% | 1012.1 hPa | 0 mm | - | - | - |
* Rain latest hour (hover to see other rain measurements)
** Current wind speed in m/s (hover to see current wind gust speed)